createdAt,value
2023-04-16T00:02:34.414Z,7.84
2023-04-16T00:05:37.327Z,7.78
2023-04-16T00:08:41.196Z,7.90
2023-04-16T00:11:43.860Z,8.00
2023-04-16T00:14:47.200Z,8.12
2023-04-16T00:17:50.101Z,8.19
2023-04-16T00:20:53.617Z,8.27
2023-04-16T00:23:56.411Z,8.25
2023-04-16T00:26:59.268Z,8.30
2023-04-16T00:30:03.720Z,8.26
2023-04-16T00:33:06.848Z,8.33
2023-04-16T00:36:10.380Z,8.36
2023-04-16T00:39:13.138Z,8.28
2023-04-16T00:42:16.230Z,8.27
2023-04-16T00:45:19.123Z,8.25
2023-04-16T00:48:22.288Z,7.97
2023-04-16T00:51:25.022Z,7.82
2023-04-16T00:54:28.378Z,7.80
2023-04-16T00:57:31.108Z,7.76
2023-04-16T01:00:34.324Z,7.74
2023-04-16T01:03:39.663Z,7.75
2023-04-16T01:06:42.511Z,7.73
2023-04-16T01:09:45.218Z,7.79
2023-04-16T01:12:48.074Z,7.84
2023-04-16T01:15:51.087Z,7.81
2023-04-16T01:18:53.816Z,7.75
2023-04-16T01:21:57.606Z,7.69
2023-04-16T01:25:01.026Z,7.65
2023-04-16T01:28:03.890Z,7.66
2023-04-16T01:31:06.826Z,7.59
2023-04-16T01:34:29.117Z,7.69
2023-04-16T01:37:32.100Z,7.67
2023-04-16T01:40:35.855Z,7.59
2023-04-16T01:43:40.287Z,7.61
2023-04-16T01:46:44.276Z,7.66
2023-04-16T01:49:48.393Z,7.61
2023-04-16T01:52:51.385Z,7.63
2023-04-16T01:55:54.064Z,7.66
2023-04-16T01:58:56.785Z,7.65
2023-04-16T02:02:16.421Z,7.65
2023-04-16T02:05:19.501Z,7.60
2023-04-16T02:08:23.510Z,7.59
2023-04-16T02:11:26.645Z,7.51
2023-04-16T02:14:31.050Z,7.47
2023-04-16T02:17:33.796Z,7.50
2023-04-16T02:20:48.170Z,7.44
2023-04-16T02:23:52.008Z,7.44
2023-04-16T02:27:00.398Z,7.48
2023-04-16T02:30:04.569Z,7.52
2023-04-16T02:33:11.561Z,7.61
2023-04-16T02:36:17.184Z,7.67
2023-04-16T02:39:20.207Z,7.63
2023-04-16T02:42:23.498Z,7.57
2023-04-16T02:45:26.271Z,7.54
2023-04-16T02:48:29.128Z,7.52
2023-04-16T02:51:33.418Z,7.50
2023-04-16T02:54:36.297Z,7.56
2023-04-16T02:57:39.133Z,7.56
2023-04-16T03:00:41.851Z,7.60
2023-04-16T03:03:44.710Z,7.53
2023-04-16T03:06:47.540Z,7.59
2023-04-16T03:09:50.429Z,7.61
2023-04-16T03:12:53.192Z,7.53
2023-04-16T03:15:55.944Z,7.47
2023-04-16T03:18:58.791Z,7.44
2023-04-16T03:22:01.667Z,7.43
2023-04-16T03:25:05.177Z,7.49
2023-04-16T03:28:07.875Z,7.46
2023-04-16T03:31:10.957Z,7.52
2023-04-16T03:34:14.164Z,7.57
2023-04-16T03:37:17.881Z,7.55
2023-04-16T03:40:20.731Z,7.56
2023-04-16T03:43:23.744Z,7.58
2023-04-16T03:46:26.982Z,7.59
2023-04-16T03:49:30.545Z,7.61
2023-04-16T03:52:34.426Z,7.60
2023-04-16T03:55:38.039Z,7.54
2023-04-16T03:58:40.894Z,7.60
2023-04-16T04:01:44.926Z,7.60
2023-04-16T04:04:48.165Z,7.62
2023-04-16T04:07:51.416Z,7.62
2023-04-16T04:10:54.697Z,7.61
2023-04-16T04:13:59.870Z,7.65
2023-04-16T04:17:02.606Z,7.60
2023-04-16T04:20:07.190Z,7.61
2023-04-16T04:23:10.081Z,7.64
2023-04-16T04:26:12.841Z,7.65
2023-04-16T04:29:16.615Z,7.63
2023-04-16T04:32:19.343Z,7.63
2023-04-16T04:35:25.025Z,7.60
2023-04-16T04:38:28.734Z,7.63
2023-04-16T04:41:31.729Z,7.62
2023-04-16T04:44:35.664Z,7.63
2023-04-16T04:47:38.449Z,7.58
2023-04-16T04:50:42.541Z,7.65
2023-04-16T04:53:45.302Z,7.66
2023-04-16T04:56:48.096Z,7.65
2023-04-16T04:59:51.004Z,7.70
2023-04-16T05:02:53.959Z,7.70
2023-04-16T05:05:56.789Z,7.74
2023-04-16T05:08:59.526Z,7.68
2023-04-16T05:12:02.845Z,7.76
2023-04-16T05:15:06.114Z,7.81
2023-04-16T05:18:08.905Z,7.82
2023-04-16T05:21:12.460Z,7.87
2023-04-16T05:24:15.252Z,8.05
2023-04-16T05:27:18.040Z,7.92
2023-04-16T05:30:20.816Z,7.96
2023-04-16T05:33:23.544Z,7.99
2023-04-16T05:36:26.273Z,7.98
2023-04-16T05:39:29.016Z,7.93
2023-04-16T05:42:32.312Z,7.91
2023-04-16T05:45:39.740Z,7.96
2023-04-16T05:48:42.950Z,7.98
2023-04-16T05:51:45.796Z,8.10
2023-04-16T05:54:48.456Z,8.11
2023-04-16T05:57:51.131Z,8.12
2023-04-16T06:00:53.879Z,8.22
2023-04-16T06:03:56.810Z,8.28
2023-04-16T06:06:59.661Z,8.29
2023-04-16T06:10:02.493Z,8.36
2023-04-16T06:13:05.236Z,8.37
2023-04-16T06:16:08.085Z,8.42
2023-04-16T06:19:11.146Z,8.44
2023-04-16T06:22:14.220Z,8.44
2023-04-16T06:25:18.206Z,8.46
2023-04-16T06:28:21.201Z,8.53
2023-04-16T06:31:24.879Z,8.77
2023-04-16T06:34:28.648Z,8.72
2023-04-16T06:37:31.478Z,8.91
2023-04-16T06:40:34.391Z,8.81
2023-04-16T06:43:37.247Z,9.08
2023-04-16T06:46:39.987Z,9.25
2023-04-16T06:49:42.810Z,9.28
2023-04-16T06:52:46.004Z,9.37
2023-04-16T06:55:48.690Z,9.49
2023-04-16T06:58:51.597Z,9.74
2023-04-16T07:01:55.919Z,9.66
2023-04-16T07:04:59.080Z,9.75
2023-04-16T07:08:01.978Z,9.58
2023-04-16T07:11:05.180Z,9.95
2023-04-16T07:14:08.394Z,10.12
2023-04-16T07:17:11.340Z,10.42
2023-04-16T07:20:14.244Z,10.50
2023-04-16T07:23:17.091Z,10.65
2023-04-16T07:26:19.843Z,11.09
2023-04-16T07:29:22.898Z,11.23
2023-04-16T07:32:26.375Z,11.55
2023-04-16T07:35:29.391Z,11.10
2023-04-16T07:38:32.594Z,11.30
2023-04-16T07:41:35.991Z,11.10
2023-04-16T07:44:39.643Z,11.57
2023-04-16T07:47:42.503Z,11.05
2023-04-16T07:50:45.405Z,11.30
2023-04-16T07:53:48.154Z,11.58
2023-04-16T07:56:50.920Z,11.74
2023-04-16T07:59:53.703Z,11.81
2023-04-16T08:02:56.798Z,11.82
2023-04-16T08:05:59.785Z,12.10
2023-04-16T08:09:03.076Z,12.11
2023-04-16T08:12:06.346Z,12.44
2023-04-16T08:15:09.524Z,12.56
2023-04-16T08:18:15.738Z,11.62
2023-04-16T08:21:18.652Z,11.75
2023-04-16T08:24:21.489Z,11.75
2023-04-16T08:27:24.183Z,11.89
2023-04-16T08:30:27.325Z,12.23
2023-04-16T08:33:30.746Z,12.44
2023-04-16T08:36:33.529Z,12.09
2023-04-16T08:39:36.363Z,11.95
2023-04-16T08:42:56.449Z,12.27
2023-04-16T08:45:59.546Z,12.35
2023-04-16T08:49:05.309Z,12.79
2023-04-16T08:52:14.658Z,12.88
2023-04-16T08:55:23.040Z,12.97
2023-04-16T08:58:29.748Z,12.11
2023-04-16T09:01:36.405Z,12.76
2023-04-16T09:04:40.285Z,12.64
2023-04-16T09:07:45.772Z,13.40
2023-04-16T09:10:49.186Z,13.33
2023-04-16T09:13:52.701Z,13.08
2023-04-16T09:16:56.275Z,13.45
2023-04-16T09:19:59.293Z,12.69
2023-04-16T09:23:02.087Z,12.36
2023-04-16T09:26:05.610Z,12.80
2023-04-16T09:29:09.967Z,12.33
2023-04-16T09:32:13.012Z,12.22
2023-04-16T09:35:16.770Z,12.75
2023-04-16T09:38:20.890Z,13.99
2023-04-16T09:41:28.637Z,13.12
2023-04-16T09:44:38.342Z,13.76
2023-04-16T09:47:43.226Z,14.04
2023-04-16T09:50:51.873Z,14.12
2023-04-16T09:53:57.256Z,14.12
2023-04-16T09:57:01.225Z,14.33
2023-04-16T10:00:06.749Z,14.51
2023-04-16T10:03:09.588Z,14.18
2023-04-16T10:06:20.875Z,14.55
2023-04-16T10:09:23.531Z,13.66
2023-04-16T10:12:27.388Z,14.54
2023-04-16T10:15:30.749Z,15.07
2023-04-16T10:18:38.962Z,15.57
2023-04-16T10:21:42.333Z,15.53
2023-04-16T10:24:47.218Z,15.31
2023-04-16T10:27:51.285Z,14.45
2023-04-16T10:30:57.054Z,14.86
2023-04-16T10:34:00.814Z,15.09
2023-04-16T10:37:03.497Z,14.82
2023-04-16T10:40:23.876Z,15.67
2023-04-16T10:43:27.144Z,15.28
2023-04-16T10:46:40.868Z,15.43
2023-04-16T10:49:44.121Z,15.14
2023-04-16T10:52:47.279Z,15.52
2023-04-16T10:56:05.719Z,15.67
2023-04-16T10:59:11.177Z,16.11
2023-04-16T11:02:16.609Z,16.16
2023-04-16T11:05:22.994Z,16.00
2023-04-16T11:08:26.377Z,15.42
2023-04-16T11:11:41.096Z,16.08
2023-04-16T11:14:48.427Z,15.59
2023-04-16T11:17:52.223Z,16.28
2023-04-16T11:20:55.223Z,15.78
2023-04-16T11:23:58.277Z,14.90
2023-04-16T11:27:01.808Z,15.34
2023-04-16T11:30:07.503Z,15.05
2023-04-16T11:33:11.760Z,15.12
2023-04-16T11:36:14.708Z,16.04
2023-04-16T11:39:17.965Z,16.26
2023-04-16T11:42:22.863Z,16.19
2023-04-16T11:45:26.018Z,16.26
2023-04-16T11:48:52.272Z,16.03
2023-04-16T11:51:55.614Z,16.34
2023-04-16T11:54:59.884Z,15.72
2023-04-16T11:58:13.251Z,16.29
2023-04-16T12:01:21.525Z,16.08
2023-04-16T12:04:26.363Z,15.07
2023-04-16T12:07:29.107Z,15.48
2023-04-16T12:10:35.454Z,14.53
2023-04-16T12:13:40.346Z,14.81
2023-04-16T12:16:43.213Z,14.50
2023-04-16T12:19:52.929Z,14.28
2023-04-16T12:22:58.344Z,13.91
2023-04-16T12:26:10.748Z,13.69
2023-04-16T12:29:19.000Z,13.84
2023-04-16T12:32:23.453Z,13.78
2023-04-16T12:35:31.457Z,13.92
2023-04-16T12:38:34.245Z,13.92
2023-04-16T12:41:38.985Z,14.18
2023-04-16T12:44:41.677Z,14.08
2023-04-16T12:47:44.597Z,14.10
2023-04-16T12:50:47.455Z,14.13
2023-04-16T12:53:50.457Z,14.14
2023-04-16T12:56:53.280Z,14.09
2023-04-16T12:59:57.490Z,14.09
2023-04-16T13:03:00.557Z,13.98
2023-04-16T13:06:04.524Z,13.87
2023-04-16T13:09:07.693Z,13.96
2023-04-16T13:12:10.838Z,13.99
2023-04-16T13:15:13.733Z,14.11
2023-04-16T13:18:16.759Z,14.02
2023-04-16T13:21:19.678Z,14.02
2023-04-16T13:24:23.737Z,14.13
2023-04-16T13:27:26.769Z,14.21
2023-04-16T13:30:29.658Z,14.00
2023-04-16T13:33:32.643Z,14.01
2023-04-16T13:36:36.462Z,14.17
2023-04-16T13:39:39.271Z,14.14
2023-04-16T13:42:42.471Z,14.27
2023-04-16T13:45:46.230Z,14.19
2023-04-16T13:48:49.291Z,14.15
2023-04-16T13:51:53.749Z,14.05
2023-04-16T13:54:59.648Z,14.24
2023-04-16T13:58:04.055Z,14.32
2023-04-16T14:01:07.391Z,14.51
2023-04-16T14:04:11.897Z,15.39
2023-04-16T14:07:15.653Z,14.79
2023-04-16T14:10:18.756Z,14.64
2023-04-16T14:13:21.877Z,14.39
2023-04-16T14:16:24.941Z,14.25
2023-04-16T14:19:27.804Z,14.39
2023-04-16T14:22:30.746Z,14.60
2023-04-16T14:25:34.266Z,14.45
2023-04-16T14:28:37.298Z,14.86
2023-04-16T14:31:40.326Z,15.32
2023-04-16T14:34:43.377Z,15.15
2023-04-16T14:37:46.945Z,14.42
2023-04-16T14:40:49.854Z,14.48
2023-04-16T14:43:53.120Z,14.25
2023-04-16T14:46:56.002Z,14.38
2023-04-16T14:49:58.832Z,14.34
2023-04-16T14:53:01.836Z,14.30
2023-04-16T14:56:06.007Z,14.32
2023-04-16T14:59:08.970Z,14.31
2023-04-16T15:02:12.219Z,14.34
2023-04-16T15:05:15.342Z,14.38
2023-04-16T15:08:18.212Z,14.33
2023-04-16T15:11:21.008Z,14.36
2023-04-16T15:14:24.107Z,14.27
2023-04-16T15:17:26.911Z,14.19
2023-04-16T15:20:29.731Z,14.29
2023-04-16T15:23:32.579Z,14.16
2023-04-16T15:26:35.876Z,14.09
2023-04-16T15:29:38.913Z,14.20
2023-04-16T15:32:43.519Z,14.26
2023-04-16T15:35:46.567Z,14.15
2023-04-16T15:38:49.443Z,14.16
2023-04-16T15:44:58.387Z,14.03
2023-04-16T15:48:01.289Z,14.04
2023-04-16T15:51:04.210Z,13.91
2023-04-16T15:54:08.578Z,13.81
2023-04-16T15:57:11.366Z,13.78
2023-04-16T16:00:17.174Z,13.68
2023-04-16T16:03:21.699Z,13.67
2023-04-16T16:06:24.917Z,13.63
2023-04-16T16:09:28.098Z,13.66
2023-04-16T16:12:31.452Z,13.64
2023-04-16T16:15:34.357Z,13.70
2023-04-16T16:18:37.440Z,13.73
2023-04-16T16:21:41.067Z,13.81
2023-04-16T16:24:44.237Z,13.80
2023-04-16T16:27:47.436Z,13.81
2023-04-16T16:30:51.435Z,13.84
2023-04-16T16:33:54.581Z,13.75
2023-04-16T16:36:57.610Z,13.68
2023-04-16T16:40:00.804Z,13.60
2023-04-16T16:43:04.455Z,13.58
2023-04-16T16:46:07.692Z,13.48
2023-04-16T16:49:11.238Z,13.46
2023-04-16T16:52:14.513Z,13.42
2023-04-16T16:55:18.809Z,13.41
2023-04-16T16:58:21.999Z,13.32
2023-04-16T17:01:28.450Z,13.26
2023-04-16T17:04:31.353Z,13.11
2023-04-16T17:07:34.498Z,13.12
2023-04-16T17:10:37.849Z,13.15
2023-04-16T17:13:41.095Z,13.12
2023-04-16T17:16:46.607Z,13.19
2023-04-16T17:19:49.674Z,13.06
2023-04-16T17:22:52.897Z,13.08
2023-04-16T17:25:55.692Z,13.06
2023-04-16T17:28:59.484Z,12.60
2023-04-16T17:32:02.778Z,12.47
2023-04-16T17:35:07.065Z,12.33
2023-04-16T17:38:10.675Z,12.33
2023-04-16T17:41:13.761Z,12.47
2023-04-16T17:44:17.121Z,12.41
2023-04-16T17:47:20.249Z,12.45
2023-04-16T17:50:23.485Z,12.54
2023-04-16T17:53:26.464Z,12.48
2023-04-16T17:56:29.508Z,12.35
2023-04-16T17:59:33.302Z,12.39
2023-04-16T18:02:36.557Z,12.36
2023-04-16T18:05:40.987Z,12.31
2023-04-16T18:08:44.033Z,12.24
2023-04-16T18:11:47.290Z,12.21
2023-04-16T18:14:50.483Z,12.21
2023-04-16T18:17:54.462Z,12.08
2023-04-16T18:20:57.707Z,12.09
2023-04-16T18:24:03.556Z,12.06
2023-04-16T18:27:07.296Z,12.07
2023-04-16T18:30:20.169Z,12.07
2023-04-16T18:33:52.288Z,12.00
2023-04-16T18:36:52.502Z,11.93
2023-04-16T18:39:57.927Z,11.89
2023-04-16T18:43:01.204Z,11.91
2023-04-16T18:46:04.234Z,11.90
2023-04-16T18:49:07.642Z,11.83
2023-04-16T18:52:10.963Z,11.75
2023-04-16T18:55:14.066Z,11.68
2023-04-16T18:58:17.254Z,11.63
2023-04-16T19:01:20.618Z,11.64
2023-04-16T19:04:23.801Z,11.64
2023-04-16T19:07:27.859Z,11.63
2023-04-16T19:10:31.090Z,11.66
2023-04-16T19:13:34.223Z,11.64
2023-04-16T19:16:39.204Z,11.67
2023-04-16T19:19:42.680Z,11.65
2023-04-16T19:22:46.088Z,11.57
2023-04-16T19:25:49.372Z,11.54
2023-04-16T19:28:52.577Z,11.51
2023-04-16T19:31:55.946Z,11.43
2023-04-16T19:34:59.051Z,11.32
2023-04-16T19:38:02.065Z,11.44
2023-04-16T19:41:04.862Z,11.37
2023-04-16T19:44:08.384Z,11.21
2023-04-16T19:47:11.959Z,11.16
2023-04-16T19:50:16.078Z,11.06
2023-04-16T19:53:18.821Z,11.04
2023-04-16T19:56:22.022Z,11.07
2023-04-16T19:59:28.252Z,11.12
2023-04-16T20:02:31.461Z,11.15
2023-04-16T20:05:34.989Z,11.17
2023-04-16T20:08:38.040Z,11.17
2023-04-16T20:11:41.364Z,11.14
2023-04-16T20:14:45.000Z,11.15
2023-04-16T20:17:47.819Z,11.14
2023-04-16T20:20:50.723Z,11.14
2023-04-16T20:23:53.827Z,11.18
2023-04-16T20:26:56.795Z,11.13
2023-04-16T20:30:00.484Z,11.09
2023-04-16T20:33:04.055Z,11.05
2023-04-16T20:36:07.367Z,11.02
2023-04-16T20:39:11.264Z,11.01
2023-04-16T20:42:14.210Z,10.96
2023-04-16T20:45:17.039Z,10.94
2023-04-16T20:48:19.896Z,10.96
2023-04-16T20:51:22.692Z,10.93
2023-04-16T20:54:25.736Z,10.93
2023-04-16T20:57:29.802Z,10.91
2023-04-16T21:00:32.764Z,10.93
2023-04-16T21:03:35.931Z,10.93
2023-04-16T21:06:43.135Z,10.88
2023-04-16T21:09:45.989Z,10.86
2023-04-16T21:12:48.828Z,10.88
2023-04-16T21:15:51.759Z,10.85
2023-04-16T21:18:55.770Z,10.85
2023-04-16T21:21:58.802Z,10.83
2023-04-16T21:25:02.725Z,10.82
2023-04-16T21:28:05.617Z,10.82
2023-04-16T21:31:08.527Z,10.80
2023-04-16T21:34:11.219Z,10.83
2023-04-16T21:37:14.044Z,10.79
2023-04-16T21:40:16.892Z,10.78
2023-04-16T21:43:20.294Z,10.78
2023-04-16T21:46:23.206Z,10.80
2023-04-16T21:49:26.032Z,10.77
2023-04-16T21:52:28.845Z,10.79
2023-04-16T21:55:31.553Z,10.79
2023-04-16T21:58:34.321Z,10.76
2023-04-16T22:01:37.075Z,10.77
2023-04-16T22:04:40.152Z,10.74
2023-04-16T22:07:42.909Z,10.74
2023-04-16T22:10:45.829Z,10.71
2023-04-16T22:13:49.601Z,10.74
2023-04-16T22:16:53.732Z,10.75
2023-04-16T22:20:00.575Z,10.68
2023-04-16T22:23:03.310Z,10.60
2023-04-16T22:26:06.348Z,10.60
2023-04-16T22:29:09.297Z,10.61
2023-04-16T22:32:12.248Z,10.60
2023-04-16T22:35:15.064Z,10.60
2023-04-16T22:38:17.966Z,10.63
2023-04-16T22:41:21.286Z,10.62
2023-04-16T22:44:24.090Z,10.64
2023-04-16T22:47:26.872Z,10.62
2023-04-16T22:50:31.557Z,10.60
2023-04-16T22:53:35.014Z,10.56
2023-04-16T22:56:39.068Z,10.57
2023-04-16T22:59:42.040Z,10.56
2023-04-16T23:02:45.365Z,10.56
2023-04-16T23:05:49.297Z,10.55
2023-04-16T23:08:52.308Z,10.53
2023-04-16T23:11:55.932Z,10.49
2023-04-16T23:15:00.817Z,10.46
2023-04-16T23:18:03.722Z,10.43
2023-04-16T23:21:06.520Z,10.45
2023-04-16T23:24:09.551Z,10.47
2023-04-16T23:27:12.322Z,10.48
2023-04-16T23:30:15.230Z,10.46
2023-04-16T23:33:18.004Z,10.46
2023-04-16T23:36:20.886Z,10.44
2023-04-16T23:39:24.166Z,10.48
2023-04-16T23:42:27.021Z,10.51
2023-04-16T23:45:29.764Z,10.49
2023-04-16T23:48:32.897Z,10.50
2023-04-16T23:51:35.719Z,10.55
2023-04-16T23:54:38.543Z,10.53
2023-04-16T23:57:41.225Z,10.54
